Time;durP1;ratioP1;P1;durP2;ratioP2;P2;SDS_P1;SDS_P2;PMS_P1;PMS_P2;Temp;Humidity;BMP_temperature;BMP_pressure;BME280_temperature;BME280_humidity;BME280_pressure;Samples;Min_cycle;Max_cycle;Signal;HPM_P1;HPM_P2
2022/08/23 00:01:27;;;;;;;13.30;7.80;;;;;;;-143.84;86.79;45039.53;5150921;27;20441;-71
2022/08/23 00:03:56;;;;;;;14.97;8.23;;;;;;;-143.84;86.91;45068.13;5150949;27;20441;-71
2022/08/23 00:06:24;;;;;;;21.17;8.30;;;;;;;-143.84;86.59;45075.72;5150552;27;20447;-71
2022/08/23 00:08:52;;;;;;;21.53;9.30;;;;;;;-143.84;86.56;45045.25;5150561;27;20512;-71
2022/08/23 00:11:34;;;;;;;19.13;8.60;;;;;;;-143.84;86.67;45054.78;5150719;27;21095;-71
2022/08/23 00:14:05;;;;;;;15.37;8.30;;;;;;;-143.84;87.16;45062.41;5150783;27;20437;-71
2022/08/23 00:16:32;;;;;;;23.50;9.00;;;;;;;-143.84;86.96;45106.19;5150861;27;20505;-71
2022/08/23 00:18:59;;;;;;;20.87;9.23;;;;;;;-143.84;87.00;45064.31;5150707;27;20512;-71
2022/08/23 00:21:28;;;;;;;24.37;9.37;;;;;;;-143.84;87.42;45066.22;5150677;27;20842;-71
2022/08/23 00:23:55;;;;;;;16.43;8.60;;;;;;;-143.84;87.58;45075.72;5150634;27;20437;-71
2022/08/23 00:26:22;;;;;;;17.00;8.00;;;;;;;-143.84;87.63;45066.22;5150225;27;20529;-71
2022/08/23 00:28:51;;;;;;;20.63;8.30;;;;;;;-143.84;87.40;45073.81;5150445;27;20473;-71
2022/08/23 00:31:18;;;;;;;26.63;8.80;;;;;;;-143.84;87.39;45060.50;5150531;27;20433;-71
2022/08/23 00:33:45;;;;;;;14.83;7.70;;;;;;;-143.84;87.21;45060.50;5150819;27;20482;-71
2022/08/23 00:36:13;;;;;;;13.10;8.33;;;;;;;-143.84;86.77;45060.50;5150424;27;21161;-71
2022/08/23 00:38:40;;;;;;;27.97;8.53;;;;;;;-143.84;86.20;45043.34;5150154;27;20433;-71
2022/08/23 00:41:08;;;;;;;13.57;7.83;;;;;;;-143.84;85.58;45068.13;5149708;27;20482;-71
2022/08/23 00:49:25;;;;;;;16.63;7.10;;;;;;;-143.84;86.89;45073.81;5145454;27;20813;-71
2022/08/23 00:51:58;;;;;;;19.83;8.73;;;;;;;-143.84;87.44;45068.13;5145483;27;20974;-71
2022/08/23 00:54:27;;;;;;;11.90;8.00;;;;;;;-143.84;87.65;45056.69;5150121;27;20510;-71
2022/08/23 00:56:56;;;;;;;21.80;8.77;;;;;;;-143.84;88.29;45064.31;5150208;27;20441;-71
2022/08/23 00:59:24;;;;;;;23.63;8.43;;;;;;;-143.84;88.42;45066.22;5150432;27;21334;-71
2022/08/23 01:01:53;;;;;;;27.90;9.47;;;;;;;-143.84;88.47;45085.25;5150169;27;20528;-72
2022/08/23 01:04:20;;;;;;;15.33;7.90;;;;;;;-143.84;88.83;45073.81;5150048;27;20448;-71
2022/08/23 01:06:57;;;;;;;25.67;8.50;;;;;;;-143.84;88.84;45060.50;5150455;27;20474;-71
2022/08/23 01:09:24;;;;;;;22.83;9.43;;;;;;;-143.84;89.02;45050.97;5150253;27;20487;-71
2022/08/23 01:11:57;;;;;;;15.63;7.63;;;;;;;-143.84;88.86;45056.69;5149888;27;20525;-72
2022/08/23 01:14:29;;;;;;;16.93;8.37;;;;;;;-143.84;88.70;45052.88;5150155;27;20883;-73
2022/08/23 01:17:04;;;;;;;24.37;8.57;;;;;;;-143.84;88.72;45068.13;5149863;27;20494;-71
2022/08/23 01:19:35;;;;;;;21.23;8.83;;;;;;;-143.84;88.85;45062.41;5150034;27;20437;-71
2022/08/23 01:22:13;;;;;;;17.83;8.40;;;;;;;-143.84;89.00;45050.97;5149979;27;20441;-71
2022/08/23 01:24:42;;;;;;;22.60;8.50;;;;;;;-143.84;88.90;45066.22;5149843;27;20479;-71
2022/08/23 01:27:11;;;;;;;13.10;8.67;;;;;;;-143.84;88.89;45087.16;5149635;27;20452;-71
2022/08/23 01:29:39;;;;;;;16.70;7.93;;;;;;;-143.84;88.94;45068.13;5149933;27;20429;-72
2022/08/23 01:32:07;;;;;;;20.77;8.60;;;;;;;-143.84;88.97;45077.63;5149726;27;20440;-71
2022/08/23 01:34:36;;;;;;;23.73;8.70;;;;;;;-143.84;88.96;45077.63;5149589;27;20442;-71
2022/08/23 01:37:05;;;;;;;24.40;9.27;;;;;;;-143.84;89.10;45075.72;5149791;27;20977;-71
2022/08/23 01:39:33;;;;;;;13.80;8.30;;;;;;;-143.84;89.15;45045.25;5150292;27;20468;-71
2022/08/23 01:42:02;;;;;;;19.80;9.13;;;;;;;-143.84;89.24;45047.16;5149765;27;20449;-71
2022/08/23 01:44:30;;;;;;;20.83;9.17;;;;;;;-143.84;89.18;45062.41;5152343;27;20895;-71
2022/08/23 01:46:57;;;;;;;19.50;8.63;;;;;;;-143.84;89.44;45089.06;5153675;27;20521;-71
2022/08/23 01:49:24;;;;;;;18.00;9.83;;;;;;;-143.84;89.75;45054.78;5153337;27;20875;-71
2022/08/23 01:51:51;;;;;;;27.13;8.93;;;;;;;-143.84;90.32;45087.16;5153635;27;20425;-72
2022/08/23 01:54:18;;;;;;;27.67;9.70;;;;;;;-143.84;90.58;45041.44;5153355;27;20445;-71
2022/08/23 01:56:45;;;;;;;22.50;8.80;;;;;;;-143.84;90.49;45096.66;5153807;27;20490;-71
2022/08/23 01:59:14;;;;;;;19.23;8.57;;;;;;;-143.84;90.75;45070.00;5153348;27;20506;-71
2022/08/23 02:01:41;;;;;;;22.97;8.63;;;;;;;-143.84;90.72;45056.69;5153786;27;20803;-71
2022/08/23 02:04:09;;;;;;;32.93;10.63;;;;;;;-143.84;90.56;45058.59;5153181;27;20437;-71
2022/08/23 02:06:36;;;;;;;20.63;8.37;;;;;;;-143.84;90.77;45049.06;5153040;27;20490;-71
2022/08/23 02:09:04;;;;;;;24.67;10.03;;;;;;;-143.84;90.35;45073.81;5153129;27;20480;-72
2022/08/23 02:11:35;;;;;;;15.70;9.33;;;;;;;-143.84;89.85;45068.13;5152982;27;20438;-71
2022/08/23 02:14:06;;;;;;;25.37;8.27;;;;;;;-143.84;89.53;45058.59;5153138;27;20676;-71
2022/08/23 02:16:37;;;;;;;18.60;10.07;;;;;;;-143.84;89.69;45064.31;5152959;27;20517;-71
2022/08/23 02:19:07;;;;;;;23.10;9.17;;;;;;;-143.84;89.20;45052.88;5152842;27;20506;-71
2022/08/23 02:21:35;;;;;;;24.50;8.80;;;;;;;-143.84;88.98;45073.81;5152823;27;20911;-71
2022/08/23 02:24:06;;;;;;;28.90;10.53;;;;;;;-143.84;88.64;45066.22;5152869;27;20802;-71
2022/08/23 02:26:35;;;;;;;19.97;8.83;;;;;;;-143.84;87.96;45068.13;5152538;27;20981;-71
2022/08/23 02:29:03;;;;;;;18.90;9.17;;;;;;;-143.84;87.47;45073.81;5152803;27;20853;-71
2022/08/23 02:31:30;;;;;;;22.00;9.10;;;;;;;-143.84;87.59;45062.41;5152723;27;20441;-73
2022/08/23 02:34:00;;;;;;;16.10;9.33;;;;;;;-143.84;87.56;45083.34;5152552;27;20485;-70
2022/08/23 02:36:27;;;;;;;17.63;9.73;;;;;;;-143.84;87.61;45070.00;5152571;27;20437;-70
2022/08/23 02:38:55;;;;;;;20.23;10.60;;;;;;;-143.84;87.83;45092.88;5152620;27;20950;-70
2022/08/23 02:41:23;;;;;;;27.87;9.57;;;;;;;-143.84;88.02;45083.34;5152343;27;20486;-70
2022/08/23 02:43:52;;;;;;;24.90;9.40;;;;;;;-143.84;88.29;45092.88;5152326;27;20445;-70
2022/08/23 02:46:20;;;;;;;27.77;10.40;;;;;;;-143.84;88.42;45083.34;5152393;27;20439;-71
2022/08/23 02:48:47;;;;;;;31.80;10.77;;;;;;;-143.84;88.44;45056.69;5152268;27;20497;-71
2022/08/23 02:51:17;;;;;;;19.83;10.00;;;;;;;-143.84;88.28;45083.34;5152474;27;20493;-71
2022/08/23 02:53:45;;;;;;;19.73;9.70;;;;;;;-143.84;87.93;45094.78;5152255;27;20449;-70
2022/08/23 02:56:13;;;;;;;21.90;10.97;;;;;;;-143.84;87.96;45085.25;5151043;27;20520;-70
2022/08/23 02:58:42;;;;;;;26.23;9.90;;;;;;;-143.84;88.36;45081.44;5152162;27;20445;-71
2022/08/23 03:01:16;;;;;;;35.27;10.47;;;;;;;-143.84;89.11;45075.72;5151853;27;20449;-70
2022/08/23 03:03:44;;;;;;;29.63;11.50;;;;;;;-143.84;89.43;45087.16;5152280;27;20473;-71
2022/08/23 03:06:12;;;;;;;32.53;11.40;;;;;;;-143.84;89.54;45085.25;5152010;27;20445;-72
2022/08/23 03:08:41;;;;;;;31.30;11.87;;;;;;;-143.84;89.53;45085.25;5151981;27;20541;-71
2022/08/23 03:11:12;;;;;;;34.03;10.50;;;;;;;-143.84;89.67;45090.97;5151866;27;20437;-71
2022/08/23 03:13:40;;;;;;;35.37;12.30;;;;;;;-143.84;90.00;45085.25;5151721;27;20436;-71
2022/08/23 03:16:08;;;;;;;30.57;12.70;;;;;;;-143.84;90.48;45071.91;5151864;27;20433;-71
2022/08/23 03:18:35;;;;;;;25.93;13.30;;;;;;;-143.84;91.00;45085.25;5151985;27;20509;-71
2022/08/23 03:21:03;;;;;;;24.00;12.67;;;;;;;-143.84;91.22;45100.47;5151718;27;20433;-71
2022/08/23 03:23:31;;;;;;;42.17;13.07;;;;;;;-143.84;91.16;45092.88;5151629;27;20433;-71
2022/08/23 03:26:02;;;;;;;27.33;13.47;;;;;;;-143.84;91.45;45085.25;5151445;27;20537;-71
2022/08/23 03:28:29;;;;;;;30.00;14.10;;;;;;;-143.84;91.58;45113.81;5151681;27;20476;-71
2022/08/23 03:30:57;;;;;;;27.40;13.57;;;;;;;-143.84;91.85;45079.53;5151673;27;20769;-70
2022/08/23 03:33:24;;;;;;;24.40;12.97;;;;;;;-143.84;92.07;45071.91;5151512;27;20477;-70
2022/08/23 03:35:52;;;;;;;34.77;13.20;;;;;;;-143.84;92.28;45098.56;5151404;27;20437;-72
2022/08/23 03:38:19;;;;;;;19.63;12.97;;;;;;;-143.84;92.46;45083.34;5151441;27;20493;-71
2022/08/23 03:40:46;;;;;;;28.43;13.97;;;;;;;-143.84;92.34;45092.88;5151303;27;20520;-74
2022/08/23 03:43:15;;;;;;;27.23;13.20;;;;;;;-143.84;92.56;45077.63;5113793;27;20967;-71
2022/08/23 03:45:42;;;;;;;32.03;14.70;;;;;;;-143.84;93.00;45094.78;5109767;28;20944;-71
2022/08/23 03:48:09;;;;;;;29.30;14.20;;;;;;;-143.84;93.14;45089.06;5109872;28;20547;-71
2022/08/23 03:50:37;;;;;;;31.47;14.33;;;;;;;-143.84;93.43;45094.78;5109988;28;20514;-71
2022/08/23 03:53:04;;;;;;;23.13;12.80;;;;;;;-143.84;93.88;45113.81;5109974;28;20439;-73
2022/08/23 03:55:31;;;;;;;20.60;12.00;;;;;;;-143.84;93.89;45081.44;5109992;28;20585;-73
2022/08/23 03:57:58;;;;;;;22.17;13.00;;;;;;;-143.84;93.97;45070.00;5109670;28;20439;-71
2022/08/23 04:00:27;;;;;;;21.33;12.33;;;;;;;-143.84;93.96;45087.16;5109796;28;20880;-74
2022/08/23 04:02:54;;;;;;;24.20;12.30;;;;;;;-143.84;94.08;45094.78;5110798;27;20536;-71
2022/08/23 04:05:22;;;;;;;15.13;11.90;;;;;;;-143.84;93.70;45094.78;5109462;28;20909;-73
2022/08/23 04:07:49;;;;;;;20.80;14.00;;;;;;;-143.84;93.71;45090.97;5109198;28;20497;-72
2022/08/23 04:10:16;;;;;;;20.13;12.67;;;;;;;-143.84;93.37;45102.38;5118480;27;20449;-71
2022/08/23 04:12:44;;;;;;;16.63;12.60;;;;;;;-143.84;93.38;45125.22;5130034;27;20434;-71
2022/08/23 04:15:12;;;;;;;17.50;12.80;;;;;;;-143.84;93.54;45075.72;5129767;27;20434;-71
2022/08/23 04:17:41;;;;;;;18.27;11.20;;;;;;;-143.84;93.20;45113.81;5130049;27;20912;-71
2022/08/23 04:20:09;;;;;;;16.53;12.00;;;;;;;-143.84;93.25;45094.78;5129697;27;20478;-72
2022/08/23 04:22:36;;;;;;;20.43;12.60;;;;;;;-143.84;92.97;45077.63;5130200;27;20529;-71
2022/08/23 04:25:04;;;;;;;12.33;10.50;;;;;;;-143.84;92.69;45081.44;5129763;27;20474;-71
2022/08/23 04:27:31;;;;;;;18.93;10.30;;;;;;;-143.84;93.08;45073.81;5130040;27;20437;-73
2022/08/23 04:29:59;;;;;;;19.33;10.80;;;;;;;-143.84;93.17;45100.47;5129735;27;20986;-72
2022/08/23 04:32:26;;;;;;;17.77;11.67;;;;;;;-143.84;93.57;45092.88;5129687;27;20445;-71
2022/08/23 04:34:54;;;;;;;22.03;11.90;;;;;;;-143.84;94.22;45077.63;5129791;27;20464;-71
2022/08/23 04:37:22;;;;;;;20.83;10.27;;;;;;;-143.84;94.49;45102.38;5130025;27;20483;-72
2022/08/23 04:42:33;;;;;;;20.23;9.70;;;;;;;-143.84;93.60;45090.97;5129549;27;20430;-71
2022/08/23 04:45:01;;;;;;;15.60;8.93;;;;;;;-143.84;93.21;45094.78;5129686;28;20447;-71
2022/08/23 04:47:28;;;;;;;17.23;8.40;;;;;;;-143.84;92.79;45068.13;5129605;28;20445;-71
2022/08/23 04:49:56;;;;;;;12.67;7.53;;;;;;;-143.84;92.13;45085.25;5129507;28;20473;-72
2022/08/23 04:52:23;;;;;;;14.13;8.93;;;;;;;-143.84;91.64;45056.69;5129469;28;20495;-71
2022/08/23 04:54:51;;;;;;;17.53;7.70;;;;;;;-143.84;91.27;45096.66;5129802;28;20475;-71
2022/08/23 04:57:18;;;;;;;17.93;8.00;;;;;;;-143.84;89.93;45090.97;5129376;28;20502;-72
2022/08/23 04:59:45;;;;;;;21.07;8.43;;;;;;;-143.84;88.93;45071.91;5111784;28;20446;-72
2022/08/23 05:02:13;;;;;;;18.37;8.63;;;;;;;-143.84;87.97;45045.25;5108844;28;20438;-73
2022/08/23 05:04:40;;;;;;;16.77;7.33;;;;;;;-143.84;87.11;45092.88;5109092;28;20435;-73
2022/08/23 05:07:09;;;;;;;20.70;8.13;;;;;;;-143.84;85.75;45050.97;5108134;28;20808;-73
2022/08/23 05:09:36;;;;;;;13.90;6.40;;;;;;;-143.84;84.16;45058.59;5108236;28;20479;-73
2022/08/23 05:12:04;;;;;;;22.97;7.50;;;;;;;-143.84;82.69;45041.44;5108526;28;20478;-73
2022/08/23 05:14:31;;;;;;;27.27;7.87;;;;;;;-143.84;81.93;45039.53;5108469;28;20504;-71
2022/08/23 05:16:58;;;;;;;12.40;6.73;;;;;;;-143.84;81.38;45033.84;5108629;28;20439;-73
2022/08/23 05:19:26;;;;;;;16.83;6.47;;;;;;;-143.84;80.76;45037.66;5111625;28;21231;-73
2022/08/23 05:21:53;;;;;;;19.50;7.60;;;;;;;-143.84;80.75;45047.16;5113035;28;20829;-71
2022/08/23 05:24:22;;;;;;;17.43;7.40;;;;;;;-143.84;80.61;45035.75;5112682;28;20439;-73
2022/08/23 05:26:49;;;;;;;19.90;7.20;;;;;;;-143.84;80.93;45033.84;5112923;28;20439;-73
2022/08/23 05:29:16;;;;;;;21.70;7.80;;;;;;;-143.84;80.76;45066.22;5112808;28;20482;-73
2022/08/23 05:31:43;;;;;;;33.93;9.13;;;;;;;-143.84;81.03;45045.25;5112925;28;20430;-71
2022/08/23 05:34:10;;;;;;;18.03;7.03;;;;;;;-143.84;80.93;45037.66;5112535;28;20495;-72
2022/08/23 05:36:37;;;;;;;15.83;6.77;;;;;;;-143.84;80.60;45033.84;5112469;28;20483;-73
2022/08/23 05:39:05;;;;;;;20.33;7.80;;;;;;;-143.84;80.67;45028.13;5112462;28;20496;-72
2022/08/23 05:41:33;;;;;;;27.63;7.00;;;;;;;-143.84;80.35;45045.25;5112109;28;20474;-72
2022/08/23 05:44:00;;;;;;;29.27;7.57;;;;;;;-143.84;80.10;45007.19;5112303;28;20447;-71
2022/08/23 05:46:28;;;;;;;22.93;8.07;;;;;;;-143.84;80.01;45041.44;5112528;28;20435;-72
2022/08/23 05:48:55;;;;;;;28.03;8.00;;;;;;;-143.84;79.86;45035.75;5112387;28;20501;-73
2022/08/23 05:51:24;;;;;;;24.00;8.33;;;;;;;-143.84;80.16;45024.31;5112775;28;20427;-71
2022/08/23 05:53:53;;;;;;;29.27;8.33;;;;;;;-143.84;79.94;45028.13;5112228;28;20435;-72
2022/08/23 05:56:23;;;;;;;18.43;7.30;;;;;;;-143.84;78.66;45014.78;5112160;28;20504;-72
2022/08/23 05:58:54;;;;;;;31.10;8.50;;;;;;;-143.84;77.80;44999.56;5112006;28;20435;-71
2022/08/23 06:01:22;;;;;;;31.20;7.70;;;;;;;-143.84;77.56;45020.50;5112077;28;20473;-71
2022/08/23 06:03:50;;;;;;;25.13;7.97;;;;;;;-143.84;76.77;45012.88;5111816;28;20491;-72
2022/08/23 06:06:19;;;;;;;38.60;7.70;;;;;;;-143.84;75.26;45014.78;5112038;28;20447;-72
2022/08/23 06:08:48;;;;;;;21.30;7.23;;;;;;;-143.84;74.36;45009.09;5112052;28;21050;-72
2022/08/23 06:11:18;;;;;;;15.50;6.90;;;;;;;-143.84;72.22;44999.56;5111935;28;21006;-72
2022/08/23 06:13:50;;;;;;;31.00;6.60;;;;;;;-143.84;71.52;45001.47;5111774;28;20535;-72
2022/08/23 06:16:22;;;;;;;25.30;6.83;;;;;;;-143.84;69.26;44978.63;5111844;28;20423;-72
2022/08/23 06:18:51;;;;;;;27.93;6.73;;;;;;;-143.84;68.38;44974.81;5111717;28;20492;-72
2022/08/23 06:21:18;;;;;;;23.97;7.20;;;;;;;-143.84;68.76;44990.03;5111612;28;20844;-72
2022/08/23 06:23:46;;;;;;;26.07;7.33;;;;;;;-143.84;66.28;44961.47;5112076;28;20818;-72
2022/08/23 06:26:15;;;;;;;22.57;6.60;;;;;;;-143.84;65.51;44963.38;5111400;28;21018;-72
2022/08/23 06:28:43;;;;;;;24.30;6.30;;;;;;;-143.84;64.93;44955.75;5111701;28;20447;-72
2022/08/23 06:31:10;;;;;;;23.93;7.53;;;;;;;-143.84;64.72;44972.91;5111564;28;20442;-72
2022/08/23 06:33:42;;;;;;;27.50;7.30;;;;;;;-143.84;65.70;44967.19;5111542;28;20504;-72
2022/08/23 06:36:12;;;;;;;23.17;6.73;;;;;;;-143.84;65.51;44950.06;5111357;28;20447;-72
2022/08/23 06:38:41;;;;;;;23.13;6.90;;;;;;;-143.84;65.72;44955.75;5111234;28;20454;-72
2022/08/23 06:41:11;;;;;;;23.70;6.30;;;;;;;-143.84;66.70;44963.38;5111505;28;21036;-72
2022/08/23 06:43:39;;;;;;;21.23;7.83;;;;;;;-143.84;67.24;45003.38;5111371;28;20936;-73
2022/08/23 06:46:11;;;;;;;31.47;6.80;;;;;;;-143.84;65.95;44963.38;5111139;28;20972;-73
2022/08/23 06:48:40;;;;;;;16.93;6.00;;;;;;;-143.84;65.68;44984.31;5111093;28;20451;-73
2022/08/23 06:51:11;;;;;;;25.20;7.07;;;;;;;-143.84;65.80;44944.34;5111230;28;20451;-73
2022/08/23 06:53:39;;;;;;;32.93;7.17;;;;;;;-143.84;66.62;44953.88;5110782;28;20449;-73
2022/08/23 06:56:07;;;;;;;23.47;6.50;;;;;;;-143.84;66.36;44959.56;5111113;28;20806;-72
2022/08/23 06:58:34;;;;;;;31.27;7.33;;;;;;;-143.84;66.66;44953.88;5111044;28;20460;-72
2022/08/23 07:01:13;;;;;;;38.23;7.07;;;;;;;-143.84;64.54;44950.06;5110864;28;20953;-72
2022/08/23 07:03:42;;;;;;;23.70;6.53;;;;;;;-143.84;61.57;44957.66;5110801;28;20982;-77
2022/08/23 07:06:09;;;;;;;28.90;6.60;;;;;;;-143.84;62.22;44946.25;5111610;28;20440;-77
2022/08/23 07:08:37;;;;;;;37.83;6.83;;;;;;;-143.84;60.04;44929.09;5111452;28;20438;-77
2022/08/23 07:11:04;;;;;;;15.83;6.50;;;;;;;-143.84;58.41;44948.16;5112058;28;20478;-78
2022/08/23 07:13:32;;;;;;;29.90;7.60;;;;;;;-143.84;58.04;44950.06;5112603;27;20554;-78
2022/08/23 07:15:59;;;;;;;24.20;6.90;;;;;;;-143.84;57.33;44946.25;5129451;27;20441;-78
2022/08/23 07:18:27;;;;;;;33.67;6.13;;;;;;;-143.84;57.74;44953.88;5128209;27;20947;-78
2022/08/23 07:20:58;;;;;;;25.27;6.40;;;;;;;-143.84;57.88;44953.88;5140382;27;20453;-79
2022/08/23 07:23:26;;;;;;;27.20;6.50;;;;;;;-143.84;55.65;44923.41;5128103;27;20454;-79
2022/08/23 07:25:53;;;;;;;30.23;7.33;;;;;;;-143.84;54.83;44925.31;5132970;27;20484;-78
2022/08/23 07:28:21;;;;;;;41.70;6.87;;;;;;;-143.84;54.28;44934.81;5136968;27;20807;-79
2022/08/23 07:30:48;;;;;;;32.83;7.77;;;;;;;-143.84;55.86;44931.00;5136164;27;20488;-78
2022/08/23 07:33:16;;;;;;;39.83;6.47;;;;;;;-143.84;56.46;44934.81;5142862;27;20804;-78
2022/08/23 07:35:48;;;;;;;30.17;7.00;;;;;;;-143.84;53.62;44906.25;5153162;27;20834;-78
2022/08/23 07:38:18;;;;;;;26.63;5.80;;;;;;;-143.84;53.50;44889.13;5153090;27;20437;-78
2022/08/23 07:40:46;;;;;;;42.50;7.40;;;;;;;-143.84;53.47;44911.97;5128567;27;20546;-78
2022/08/23 07:43:13;;;;;;;34.53;5.97;;;;;;;-143.84;53.79;44944.34;5139304;27;20504;-79
2022/08/23 07:45:42;;;;;;;34.07;7.77;;;;;;;-143.84;53.71;44925.31;5124808;27;20443;-78
2022/08/23 07:48:11;;;;;;;24.43;6.43;;;;;;;-143.84;54.20;44925.31;5122224;27;20498;-78
2022/08/23 07:50:39;;;;;;;21.70;5.93;;;;;;;-143.84;54.77;44923.41;5126844;27;20541;-78
2022/08/23 07:53:06;;;;;;;21.80;6.60;;;;;;;-143.84;55.34;44934.81;5133202;27;21000;-78
2022/08/23 07:55:35;;;;;;;18.47;6.50;;;;;;;-143.84;57.14;44931.00;5120912;27;20453;-78
2022/08/23 07:58:02;;;;;;;27.87;6.50;;;;;;;-143.84;57.75;44929.09;5140959;27;20878;-78
2022/08/23 08:00:29;;;;;;;26.80;6.43;;;;;;;-143.84;57.30;44915.78;5121757;27;20446;-78
2022/08/23 08:02:56;;;;;;;28.60;6.90;;;;;;;-143.84;57.20;44911.97;5127438;27;20445;-78
2022/08/23 08:05:24;;;;;;;27.43;6.77;;;;;;;-143.84;57.69;44919.59;5132973;27;20453;-78
2022/08/23 08:07:51;;;;;;;28.70;7.20;;;;;;;-143.84;55.61;44913.88;5121372;27;20461;-78
2022/08/23 08:10:18;;;;;;;19.00;6.33;;;;;;;-143.84;55.18;44917.69;5131328;27;20559;-78
2022/08/23 08:12:48;;;;;;;36.17;5.83;;;;;;;-143.84;56.25;44900.53;5117068;27;20447;-77
2022/08/23 08:15:16;;;;;;;40.37;6.57;;;;;;;-143.84;55.03;44923.41;5136168;27;20451;-78
2022/08/23 08:17:43;;;;;;;24.83;6.30;;;;;;;-143.84;54.08;44902.44;5136107;27;20465;-78
2022/08/23 08:20:10;;;;;;;28.33;6.30;;;;;;;-143.84;53.34;44915.78;5128481;27;20466;-77
2022/08/23 08:22:37;;;;;;;30.03;6.43;;;;;;;-143.84;52.55;44917.69;5127336;27;20449;-77
2022/08/23 08:25:08;;;;;;;31.17;5.70;;;;;;;-143.84;53.34;44875.78;5124557;27;20499;-69
2022/08/23 08:27:36;;;;;;;28.63;6.53;;;;;;;-143.84;55.46;44913.88;5121746;27;20453;-69
2022/08/23 08:30:06;;;;;;;24.87;6.60;;;;;;;-143.84;53.80;44898.66;5130360;27;20476;-69
2022/08/23 08:32:33;;;;;;;30.70;6.60;;;;;;;-143.84;50.57;44898.66;5133558;27;20494;-69
2022/08/23 08:35:01;;;;;;;23.73;5.70;;;;;;;-143.84;48.88;44866.28;5126602;27;20565;-69
2022/08/23 08:37:29;;;;;;;29.83;6.20;;;;;;;-143.84;48.68;44896.75;5112600;27;20455;-69
2022/08/23 08:39:56;;;;;;;27.00;5.70;;;;;;;-143.84;49.14;44913.88;5112841;28;20490;-69
2022/08/23 08:42:42;;;;;;;17.63;5.80;;;;;;;-143.84;48.84;44881.50;5129724;27;20434;-69
2022/08/23 08:45:16;;;;;;;30.77;6.00;;;;;;;-143.84;49.34;44904.34;5132566;27;20438;-68
2022/08/23 08:47:49;;;;;;;48.53;7.30;;;;;;;-143.84;49.45;44891.03;5129106;28;20441;-69
2022/08/23 08:50:22;;;;;;;31.50;6.73;;;;;;;-143.84;49.44;44868.19;5130387;28;20474;-69
2022/08/23 08:52:57;;;;;;;32.60;6.27;;;;;;;-143.84;50.45;44873.88;5130365;27;20942;-69
2022/08/23 08:55:27;;;;;;;34.03;5.70;;;;;;;-143.84;50.30;44892.94;5130059;27;20466;-68
2022/08/23 08:57:55;;;;;;;28.60;6.90;;;;;;;-143.84;49.05;44858.66;5134301;27;20447;-69
2022/08/23 09:00:27;;;;;;;31.27;6.87;;;;;;;-143.84;48.84;44885.31;5135685;27;20982;-69
2022/08/23 09:02:56;;;;;;;31.53;6.70;;;;;;;-143.84;49.03;44862.47;5134686;27;20436;-69
2022/08/23 09:05:27;;;;;;;35.80;6.90;;;;;;;-143.84;48.49;44892.94;5133844;27;20448;-69
2022/08/23 09:08:13;;;;;;;23.77;6.10;;;;;;;-143.84;50.67;44885.31;5128658;27;20442;-68
2022/08/23 09:10:51;;;;;;;37.80;6.70;;;;;;;-143.84;52.13;44870.09;5124789;27;20482;-69
2022/08/23 09:13:46;;;;;;;44.27;6.43;;;;;;;-143.84;52.68;44881.50;5129372;27;20464;-69
2022/08/23 09:16:27;;;;;;;29.87;6.13;;;;;;;-143.84;51.76;44908.16;5093829;27;20517;-69
2022/08/23 09:18:54;;;;;;;33.20;5.57;;;;;;;-143.84;52.98;44870.09;5136016;27;20446;-70
2022/08/23 09:21:23;;;;;;;28.00;7.30;;;;;;;-143.84;53.41;44894.84;5139859;27;20458;-70
2022/08/23 09:23:51;;;;;;;40.80;6.53;;;;;;;-143.84;52.31;44875.78;5137175;27;20445;-70
2022/08/23 09:26:23;;;;;;;25.33;5.67;;;;;;;-143.84;53.25;44881.50;5128772;27;20490;-70
2022/08/23 09:28:52;;;;;;;27.17;6.10;;;;;;;-143.84;54.21;44889.13;5131618;27;20445;-70
2022/08/23 09:31:42;;;;;;;34.97;5.93;;;;;;;-143.84;53.69;44902.44;5135330;27;20480;-70
2022/08/23 09:34:16;;;;;;;37.17;6.43;;;;;;;-143.84;53.36;44892.94;5134819;27;20453;-70
2022/08/23 09:36:43;;;;;;;21.77;5.60;;;;;;;-143.84;53.69;44885.31;5129517;27;20831;-70
2022/08/23 09:39:26;;;;;;;30.37;5.80;;;;;;;-143.84;54.32;44883.41;5131128;27;20449;-70
2022/08/23 09:41:54;;;;;;;32.60;5.67;;;;;;;-143.84;53.35;44894.84;5129411;27;20481;-70
2022/08/23 09:44:34;;;;;;;25.60;6.10;;;;;;;-143.84;52.58;44892.94;5134018;27;20536;-70
2022/08/23 09:47:12;;;;;;;24.60;6.53;;;;;;;-143.84;51.59;44908.16;5129847;27;20457;-70
2022/08/23 09:49:40;;;;;;;25.57;5.33;;;;;;;-143.84;52.30;44896.75;5135577;27;20464;-70
2022/08/23 09:52:26;;;;;;;24.33;6.00;;;;;;;-143.84;55.40;44887.22;5132469;27;20447;-70
2022/08/23 09:55:01;;;;;;;27.60;6.37;;;;;;;-143.84;53.20;44881.50;5130396;27;20873;-70
2022/08/23 09:57:31;;;;;;;38.20;6.50;;;;;;;-143.84;51.93;44864.38;5132263;27;20584;-75
2022/08/23 10:00:02;;;;;;;27.33;5.57;;;;;;;-143.84;53.15;44902.44;5129769;27;20722;-72
2022/08/23 10:02:34;;;;;;;21.50;5.30;;;;;;;-143.84;53.40;44929.09;5128684;27;20449;-72
2022/08/23 10:05:06;;;;;;;25.33;5.30;;;;;;;-143.84;55.06;44906.25;5131676;27;20457;-72
2022/08/23 10:07:37;;;;;;;25.83;6.00;;;;;;;-143.84;52.09;44889.13;5144652;27;20942;-72
2022/08/23 10:10:17;;;;;;;31.83;5.70;;;;;;;-143.84;52.26;44877.69;5131046;27;20447;-72
2022/08/23 10:12:45;;;;;;;24.57;5.20;;;;;;;-143.84;50.42;44900.53;5144025;27;20448;-72
2022/08/23 10:15:13;;;;;;;33.93;6.00;;;;;;;-143.84;51.60;44917.69;5134278;27;20454;-72
2022/08/23 10:17:54;;;;;;;23.53;5.17;;;;;;;-143.84;49.54;44883.41;5118741;27;20985;-72
2022/08/23 10:20:35;;;;;;;24.03;5.27;;;;;;;-143.84;49.99;44879.59;5120976;27;20527;-72
2022/08/23 10:23:25;;;;;;;23.13;5.00;;;;;;;-143.84;48.89;44873.88;5125321;27;20462;-72
2022/08/23 10:25:55;;;;;;;19.53;4.93;;;;;;;-143.84;49.75;44892.94;5127447;27;20534;-72
2022/08/23 10:31:27;;;;;;;29.27;4.63;;;;;;;-143.84;49.10;44889.13;5087074;27;21355;-72
2022/08/23 10:34:12;;;;;;;24.90;5.40;;;;;;;-143.84;50.13;44892.94;5131956;27;20445;-72
2022/08/23 10:36:58;;;;;;;19.57;4.80;;;;;;;-143.84;47.55;44866.28;5121866;27;20511;-72
2022/08/23 10:39:27;;;;;;;20.97;5.80;;;;;;;-143.84;50.13;44879.59;5132591;27;20437;-72
2022/08/23 10:42:03;;;;;;;13.40;4.43;;;;;;;-143.84;49.96;44902.44;5132046;27;20434;-72
2022/08/23 10:44:40;;;;;;;14.40;4.50;;;;;;;-143.84;51.49;44896.75;5130402;27;20438;-72
2022/08/23 10:47:28;;;;;;;22.50;5.20;;;;;;;-143.84;50.55;44875.78;5132570;27;20875;-72
2022/08/23 10:50:00;;;;;;;17.20;5.03;;;;;;;-143.84;50.75;44887.22;5132309;27;20490;-72
2022/08/23 10:52:31;;;;;;;19.53;4.70;;;;;;;-143.84;49.81;44866.28;5132533;27;21000;-72
2022/08/23 10:55:05;;;;;;;19.67;5.20;;;;;;;-143.84;50.17;44881.50;5132631;27;20450;-72
2022/08/23 10:57:36;;;;;;;18.73;5.40;;;;;;;-143.84;50.27;44858.66;5132595;27;20472;-72
2022/08/23 11:00:07;;;;;;;29.23;7.23;;;;;;;-143.84;48.73;44889.13;5132241;27;20467;-72
2022/08/23 11:02:41;;;;;;;28.67;5.70;;;;;;;-143.84;49.24;44883.41;5131981;27;20456;-72
2022/08/23 11:05:21;;;;;;;25.90;4.97;;;;;;;-143.84;49.79;44891.03;5132495;27;20797;-72
2022/08/23 11:07:58;;;;;;;22.60;5.43;;;;;;;-143.84;50.67;44851.03;5131983;27;20445;-72
2022/08/23 11:10:31;;;;;;;18.20;5.80;;;;;;;-143.84;49.71;44879.59;5132347;27;20477;-72
2022/08/23 11:13:01;;;;;;;37.90;5.67;;;;;;;-143.84;50.11;44866.28;5131649;27;21045;-72
2022/08/23 11:15:38;;;;;;;23.77;6.00;;;;;;;-143.84;52.28;44864.38;5131513;27;20824;-72
2022/08/23 11:18:08;;;;;;;18.70;6.30;;;;;;;-143.84;53.44;44885.31;5131093;27;20433;-72
2022/08/23 11:21:06;;;;;;;34.50;5.90;;;;;;;-143.84;54.28;44885.31;5131907;27;20426;-72
2022/08/23 11:23:43;;;;;;;24.10;6.10;;;;;;;-143.84;54.49;44885.31;5131799;27;20454;-72
2022/08/23 11:26:35;;;;;;;26.90;5.23;;;;;;;-143.84;54.11;44885.31;5130131;27;20985;-72
2022/08/23 11:29:27;;;;;;;13.80;5.70;;;;;;;-143.84;53.04;44902.44;5131350;27;20464;-72
2022/08/23 11:32:02;;;;;;;18.33;5.13;;;;;;;-143.84;51.73;44875.78;5132116;27;20482;-72